createdAt,value
2023-02-08T00:00:36.407Z,8.27
2023-02-08T00:03:02.904Z,8.27
2023-02-08T00:05:29.240Z,8.27
2023-02-08T00:07:55.556Z,8.27
2023-02-08T00:10:21.933Z,8.28
2023-02-08T00:12:48.357Z,8.25
2023-02-08T00:15:14.724Z,8.26
2023-02-08T00:17:41.153Z,8.26
2023-02-08T00:20:07.664Z,8.25
2023-02-08T00:22:34.064Z,8.25
2023-02-08T00:25:00.435Z,8.26
2023-02-08T00:27:27.083Z,8.24
2023-02-08T00:29:53.440Z,8.24
2023-02-08T00:32:19.948Z,8.23
2023-02-08T00:34:46.314Z,8.24
2023-02-08T00:37:12.660Z,8.25
2023-02-08T00:39:39.106Z,8.24
2023-02-08T00:42:05.511Z,8.23
2023-02-08T00:44:31.908Z,8.23
2023-02-08T00:46:58.252Z,8.22
2023-02-08T00:49:24.874Z,8.23
2023-02-08T00:51:51.212Z,8.21
2023-02-08T00:54:17.853Z,8.22
2023-02-08T00:56:44.223Z,8.22
2023-02-08T00:59:10.639Z,8.21
2023-02-08T01:01:36.978Z,8.21
2023-02-08T01:04:03.375Z,8.21
2023-02-08T01:06:29.813Z,8.20
2023-02-08T01:08:56.209Z,8.20
2023-02-08T01:11:22.720Z,8.19
2023-02-08T01:13:49.220Z,8.19
2023-02-08T01:16:15.706Z,8.19
2023-02-08T01:18:42.127Z,8.20
2023-02-08T01:21:08.583Z,8.19
2023-02-08T01:23:35.011Z,8.17
2023-02-08T01:26:01.567Z,8.18
2023-02-08T01:28:27.978Z,8.18
2023-02-08T01:30:54.432Z,8.17
2023-02-08T01:33:20.955Z,8.18
2023-02-08T01:35:47.232Z,8.18
2023-02-08T01:38:13.677Z,8.17
2023-02-08T01:40:40.662Z,8.17
2023-02-08T01:43:07.306Z,8.17
2023-02-08T01:45:33.696Z,8.15
2023-02-08T01:48:00.128Z,8.15
2023-02-08T01:50:26.509Z,8.15
2023-02-08T01:52:53.119Z,8.15
2023-02-08T01:55:19.505Z,8.15
2023-02-08T01:57:45.917Z,8.15
2023-02-08T02:00:12.514Z,8.15
2023-02-08T02:02:39.001Z,8.14
2023-02-08T02:05:06.212Z,8.14
2023-02-08T02:07:33.442Z,8.14
2023-02-08T02:09:59.980Z,8.13
2023-02-08T02:12:29.986Z,8.14
2023-02-08T02:14:56.485Z,8.14
2023-02-08T02:17:23.505Z,8.13
2023-02-08T02:19:50.037Z,8.13
2023-02-08T02:22:16.534Z,8.13
2023-02-08T02:24:45.235Z,8.13
2023-02-08T02:27:17.793Z,8.13
2023-02-08T02:29:44.465Z,8.12
2023-02-08T02:32:11.092Z,8.12
2023-02-08T02:34:37.546Z,8.12
2023-02-08T02:37:03.972Z,8.11
2023-02-08T02:39:30.343Z,8.10
2023-02-08T02:41:56.712Z,8.10
2023-02-08T02:44:23.748Z,8.11
2023-02-08T02:46:50.259Z,8.10
2023-02-08T02:49:17.619Z,8.09
2023-02-08T02:51:44.002Z,8.10
2023-02-08T02:54:11.318Z,8.09
2023-02-08T02:56:37.885Z,8.09
2023-02-08T02:59:04.326Z,8.09
2023-02-08T03:01:30.867Z,8.10
2023-02-08T03:03:57.295Z,8.08
2023-02-08T03:06:23.691Z,8.08
2023-02-08T03:08:50.285Z,8.08
2023-02-08T03:11:16.706Z,8.09
2023-02-08T03:13:43.100Z,8.07
2023-02-08T03:16:10.889Z,8.06
2023-02-08T03:18:37.220Z,8.06
2023-02-08T03:21:03.860Z,8.06
2023-02-08T03:23:30.445Z,8.05
2023-02-08T03:25:57.099Z,8.07
2023-02-08T03:28:23.531Z,8.06
2023-02-08T03:30:50.251Z,8.04
2023-02-08T03:33:17.127Z,8.06
2023-02-08T03:35:43.473Z,8.05
2023-02-08T03:38:10.027Z,8.04
2023-02-08T03:40:36.468Z,8.04
2023-02-08T03:43:03.044Z,8.04
2023-02-08T03:45:29.342Z,8.05
2023-02-08T03:47:56.144Z,8.03
2023-02-08T03:50:22.566Z,8.04
2023-02-08T03:52:48.947Z,8.04
2023-02-08T03:55:15.363Z,8.03
2023-02-08T03:57:41.792Z,8.02
2023-02-08T04:00:08.303Z,8.01
2023-02-08T04:02:34.664Z,8.00
2023-02-08T04:05:01.209Z,8.02
2023-02-08T04:07:27.722Z,8.03
2023-02-08T04:09:54.273Z,8.01
2023-02-08T04:12:20.602Z,8.02
2023-02-08T04:14:46.975Z,8.01
2023-02-08T04:17:13.419Z,8.01
2023-02-08T04:19:39.835Z,8.00
2023-02-08T04:22:06.263Z,7.99
2023-02-08T04:24:32.724Z,8.00
2023-02-08T04:26:59.076Z,7.99
2023-02-08T04:29:25.583Z,7.99
2023-02-08T04:31:52.104Z,7.98
2023-02-08T04:34:18.903Z,7.99
2023-02-08T04:36:45.271Z,7.98
2023-02-08T04:39:11.651Z,7.98
2023-02-08T04:41:38.076Z,7.98
2023-02-08T04:44:04.497Z,7.98
2023-02-08T04:46:31.201Z,7.98
2023-02-08T04:48:59.008Z,7.96
2023-02-08T04:51:25.528Z,7.96
2023-02-08T04:53:51.966Z,7.95
2023-02-08T04:56:18.410Z,7.97
2023-02-08T04:58:44.793Z,7.95
2023-02-08T05:01:11.194Z,7.94
2023-02-08T05:03:38.293Z,7.94
2023-02-08T05:06:04.778Z,7.95
2023-02-08T05:08:31.412Z,7.94
2023-02-08T05:10:57.807Z,7.94
2023-02-08T05:13:24.245Z,7.94
2023-02-08T05:15:50.844Z,7.93
2023-02-08T05:18:17.604Z,7.94
2023-02-08T05:20:44.038Z,7.93
2023-02-08T05:23:10.697Z,7.93
2023-02-08T05:25:37.057Z,7.93
2023-02-08T05:28:03.734Z,7.93
2023-02-08T05:30:30.129Z,7.92
2023-02-08T05:32:56.819Z,7.92
2023-02-08T05:35:23.404Z,7.92
2023-02-08T05:37:49.966Z,7.91
2023-02-08T05:40:16.404Z,7.91
2023-02-08T05:42:42.993Z,7.90
2023-02-08T05:45:09.414Z,7.90
2023-02-08T05:47:35.763Z,7.90
2023-02-08T05:50:02.114Z,7.89
2023-02-08T05:52:28.583Z,7.89
2023-02-08T05:54:55.382Z,7.90
2023-02-08T05:57:21.744Z,7.90
2023-02-08T05:59:48.136Z,7.89
2023-02-08T06:02:14.501Z,7.88
2023-02-08T06:04:41.020Z,7.89
2023-02-08T06:07:07.395Z,7.88
2023-02-08T06:09:34.073Z,7.87
2023-02-08T06:12:00.833Z,7.88
2023-02-08T06:14:28.007Z,7.87
2023-02-08T06:16:54.596Z,7.87
2023-02-08T06:19:21.301Z,7.87
2023-02-08T06:21:47.651Z,7.87
2023-02-08T06:24:14.011Z,7.86
2023-02-08T06:26:40.519Z,7.86
2023-02-08T06:29:07.311Z,7.86
2023-02-08T06:31:33.720Z,7.84
2023-02-08T06:34:00.367Z,7.84
2023-02-08T06:36:27.362Z,7.84
2023-02-08T06:38:53.700Z,7.84
2023-02-08T06:41:20.112Z,7.84
2023-02-08T06:43:46.724Z,7.84
2023-02-08T06:46:13.532Z,7.84
2023-02-08T06:48:40.548Z,7.84
2023-02-08T06:51:06.918Z,7.83
2023-02-08T06:53:33.304Z,7.84
2023-02-08T06:56:00.176Z,7.83
2023-02-08T06:58:27.400Z,7.82
2023-02-08T07:00:53.828Z,7.82
2023-02-08T07:03:20.382Z,7.82
2023-02-08T07:05:59.016Z,7.81
2023-02-08T07:08:30.469Z,7.81
2023-02-08T07:10:57.785Z,7.81
2023-02-08T07:13:24.185Z,7.80
2023-02-08T07:15:50.586Z,7.81
2023-02-08T07:18:17.483Z,7.80
2023-02-08T07:20:44.255Z,7.80
2023-02-08T07:23:11.081Z,7.79
2023-02-08T07:25:37.487Z,7.80
2023-02-08T07:28:03.924Z,7.78
2023-02-08T07:30:30.577Z,7.79
2023-02-08T07:32:57.382Z,7.80
2023-02-08T07:35:24.262Z,7.78
2023-02-08T07:37:50.653Z,7.79
2023-02-08T07:40:17.012Z,7.79
2023-02-08T07:42:43.383Z,7.78
2023-02-08T07:45:09.662Z,7.79
2023-02-08T07:47:35.959Z,7.78
2023-02-08T07:50:02.862Z,7.79
2023-02-08T07:52:29.394Z,7.78
2023-02-08T07:54:55.944Z,7.78
2023-02-08T07:57:22.479Z,7.78
2023-02-08T07:59:48.950Z,7.78
2023-02-08T08:02:15.273Z,7.79
2023-02-08T08:04:41.793Z,7.77
2023-02-08T08:07:08.460Z,7.78
2023-02-08T08:09:34.913Z,7.77
2023-02-08T08:12:01.432Z,7.77
2023-02-08T08:14:27.802Z,7.77
2023-02-08T08:16:54.240Z,7.77
2023-02-08T08:19:20.861Z,7.78
2023-02-08T08:21:47.193Z,7.75
2023-02-08T08:24:13.571Z,7.76
2023-02-08T08:26:40.089Z,7.77
2023-02-08T08:29:06.701Z,7.75
2023-02-08T08:31:33.489Z,7.76
2023-02-08T08:33:59.864Z,7.77
2023-02-08T08:36:26.222Z,7.75
2023-02-08T08:38:52.535Z,7.74
2023-02-08T08:41:19.019Z,7.75
2023-02-08T08:43:45.625Z,7.75
2023-02-08T08:46:12.198Z,7.74
2023-02-08T08:48:38.696Z,7.74
2023-02-08T08:51:05.397Z,7.73
2023-02-08T08:53:31.754Z,7.74
2023-02-08T08:55:58.162Z,7.73
2023-02-08T08:58:24.548Z,7.74
2023-02-08T09:00:51.193Z,7.73
2023-02-08T09:03:17.700Z,7.73
2023-02-08T09:05:44.078Z,7.72
2023-02-08T09:08:10.482Z,7.72
2023-02-08T09:10:36.886Z,7.72
2023-02-08T09:13:03.834Z,7.72
2023-02-08T09:15:30.329Z,7.71
2023-02-08T09:17:57.477Z,7.71
2023-02-08T09:20:24.118Z,7.72
2023-02-08T09:22:50.992Z,7.70
2023-02-08T09:25:17.275Z,7.68
2023-02-08T09:27:43.716Z,7.70
2023-02-08T09:30:10.092Z,7.72
2023-02-08T09:32:36.593Z,7.74
2023-02-08T09:35:03.417Z,7.77
2023-02-08T09:37:29.872Z,7.77
2023-02-08T09:39:56.244Z,7.79
2023-02-08T09:42:22.624Z,7.80
2023-02-08T09:44:49.279Z,7.83
2023-02-08T09:47:15.985Z,7.85
2023-02-08T09:49:42.649Z,7.88
2023-02-08T09:52:09.048Z,7.92
2023-02-08T09:54:35.424Z,7.98
2023-02-08T09:57:01.838Z,8.01
2023-02-08T09:59:28.178Z,8.04
2023-02-08T10:01:54.905Z,8.10
2023-02-08T10:04:21.477Z,8.14
2023-02-08T10:06:49.994Z,8.19
2023-02-08T10:09:17.514Z,8.21
2023-02-08T10:11:44.324Z,8.25
2023-02-08T10:14:10.914Z,8.30
2023-02-08T10:16:37.223Z,8.36
2023-02-08T10:19:03.613Z,8.40
2023-02-08T10:21:29.987Z,8.44
2023-02-08T10:23:56.560Z,8.47
2023-02-08T10:26:22.878Z,8.50
2023-02-08T10:28:51.364Z,8.53
2023-02-08T10:31:19.207Z,8.57
2023-02-08T10:33:45.824Z,8.60
2023-02-08T10:36:12.258Z,8.62
2023-02-08T10:38:46.483Z,8.65
2023-02-08T10:41:13.916Z,8.66
2023-02-08T10:43:40.747Z,8.69
2023-02-08T10:46:07.450Z,8.72
2023-02-08T10:48:34.420Z,8.74
2023-02-08T10:51:01.179Z,8.76
2023-02-08T10:53:27.887Z,8.79
2023-02-08T10:55:54.428Z,8.81
2023-02-08T10:58:20.911Z,8.83
2023-02-08T11:00:47.673Z,8.84
2023-02-08T11:03:14.696Z,8.89
2023-02-08T11:05:41.630Z,8.92
2023-02-08T11:08:08.137Z,8.95
2023-02-08T11:10:34.510Z,8.95
2023-02-08T11:13:00.853Z,8.95
2023-02-08T11:15:27.343Z,8.99
2023-02-08T11:17:53.701Z,9.01
2023-02-08T11:20:20.329Z,9.05
2023-02-08T11:22:46.883Z,9.08
2023-02-08T11:25:13.427Z,9.11
2023-02-08T11:27:39.969Z,9.15
2023-02-08T11:30:06.590Z,9.17
2023-02-08T11:32:33.317Z,9.19
2023-02-08T11:34:59.914Z,9.19
2023-02-08T11:37:26.965Z,9.22
2023-02-08T11:39:53.314Z,9.24
2023-02-08T11:42:19.739Z,9.28
2023-02-08T11:44:46.088Z,9.29
2023-02-08T11:47:12.682Z,9.32
2023-02-08T11:49:39.327Z,9.34
2023-02-08T11:52:05.707Z,9.34
2023-02-08T11:54:32.097Z,9.36
2023-02-08T11:56:59.071Z,9.37
2023-02-08T11:59:25.449Z,9.37
2023-02-08T12:01:52.047Z,9.39
2023-02-08T12:04:18.419Z,9.39
2023-02-08T12:06:44.761Z,9.39
2023-02-08T12:09:11.761Z,9.39
2023-02-08T12:11:38.532Z,9.42
2023-02-08T12:14:04.992Z,9.41
2023-02-08T12:16:32.715Z,9.42
2023-02-08T12:18:59.545Z,9.40
2023-02-08T12:21:25.940Z,9.40
2023-02-08T12:23:52.348Z,9.40
2023-02-08T12:26:19.082Z,9.39
2023-02-08T12:28:45.876Z,9.38
2023-02-08T12:31:12.461Z,9.38
2023-02-08T12:33:39.157Z,9.37
2023-02-08T12:36:05.894Z,9.38
2023-02-08T12:38:32.412Z,9.38
2023-02-08T12:40:58.779Z,9.37
2023-02-08T12:43:26.015Z,9.37
2023-02-08T12:45:52.793Z,9.38
2023-02-08T12:48:19.347Z,9.40
2023-02-08T12:50:45.716Z,9.40
2023-02-08T12:53:12.308Z,9.41
2023-02-08T12:55:38.653Z,9.42
2023-02-08T12:58:05.144Z,9.39
2023-02-08T13:00:31.549Z,9.37
2023-02-08T13:02:58.639Z,9.37
2023-02-08T13:05:25.130Z,9.39
2023-02-08T13:07:51.485Z,9.39
2023-02-08T13:10:17.797Z,9.37
2023-02-08T13:12:44.265Z,9.36
2023-02-08T13:15:18.500Z,9.36
2023-02-08T13:17:51.568Z,9.37
2023-02-08T13:20:18.517Z,9.36
2023-02-08T13:22:45.287Z,9.35
2023-02-08T13:25:11.741Z,9.33
2023-02-08T13:27:38.081Z,9.33
2023-02-08T13:30:04.467Z,9.33
2023-02-08T13:32:31.025Z,9.33
2023-02-08T13:34:57.878Z,9.33
2023-02-08T13:37:25.674Z,9.33
2023-02-08T13:39:53.549Z,9.32
2023-02-08T13:42:19.907Z,9.31
2023-02-08T13:44:46.242Z,9.29
2023-02-08T13:47:12.852Z,9.29
2023-02-08T13:49:39.363Z,9.28
2023-02-08T13:52:05.982Z,9.27
2023-02-08T13:54:32.481Z,9.25
2023-02-08T13:56:59.166Z,9.25
2023-02-08T13:59:25.472Z,9.24
2023-02-08T14:01:52.061Z,9.22
2023-02-08T14:04:19.053Z,9.22
2023-02-08T14:06:45.744Z,9.20
2023-02-08T14:09:12.306Z,9.19
2023-02-08T14:11:38.867Z,9.19
2023-02-08T14:14:05.214Z,9.18
2023-02-08T14:16:31.833Z,9.18
2023-02-08T14:18:58.206Z,9.16
2023-02-08T14:21:24.865Z,9.16
2023-02-08T14:23:51.386Z,9.14
2023-02-08T14:26:17.786Z,9.13
2023-02-08T14:28:44.198Z,9.13
2023-02-08T14:31:10.573Z,9.11
2023-02-08T14:33:37.310Z,9.10
2023-02-08T14:36:03.981Z,9.10
2023-02-08T14:38:30.286Z,9.09
2023-02-08T14:40:56.946Z,9.07
2023-02-08T14:43:23.745Z,9.06
2023-02-08T14:45:50.480Z,9.05
2023-02-08T14:48:17.177Z,9.03
2023-02-08T14:50:43.493Z,9.02
2023-02-08T14:53:10.095Z,9.02
2023-02-08T14:55:36.823Z,9.01
2023-02-08T14:58:03.290Z,9.01
2023-02-08T15:00:29.772Z,8.99
2023-02-08T15:02:56.421Z,8.97
2023-02-08T15:05:23.445Z,8.97
2023-02-08T15:07:49.789Z,8.97
2023-02-08T15:10:16.853Z,8.97
2023-02-08T15:12:43.438Z,8.97
2023-02-08T15:15:09.811Z,8.95
2023-02-08T15:17:36.118Z,8.95
2023-02-08T15:20:02.546Z,8.95
2023-02-08T15:22:28.925Z,8.93
2023-02-08T15:24:55.248Z,8.94
2023-02-08T15:27:21.786Z,8.91
2023-02-08T15:29:48.966Z,8.93
2023-02-08T15:32:15.631Z,8.92
2023-02-08T15:34:42.069Z,8.92
2023-02-08T15:37:08.999Z,8.91
2023-02-08T15:39:35.349Z,8.91
2023-02-08T15:42:01.816Z,8.88
2023-02-08T15:44:28.205Z,8.92
2023-02-08T15:49:19.934Z,8.89
2023-02-08T15:51:46.851Z,8.91
2023-02-08T15:54:13.168Z,8.90
2023-02-08T15:56:42.282Z,8.88
2023-02-08T15:59:08.964Z,8.88
2023-02-08T16:01:35.462Z,8.86
2023-02-08T16:04:02.236Z,8.87
2023-02-08T16:06:29.044Z,8.85
2023-02-08T16:08:55.655Z,8.87
2023-02-08T16:11:22.526Z,8.86
2023-02-08T16:13:49.435Z,8.86
2023-02-08T16:16:15.800Z,8.86
2023-02-08T16:18:42.261Z,8.83
2023-02-08T16:21:09.128Z,8.83
2023-02-08T16:23:35.600Z,8.83
2023-02-08T16:26:02.061Z,8.81
2023-02-08T16:28:28.734Z,8.79
2023-02-08T16:30:55.436Z,8.82
2023-02-08T16:33:21.759Z,8.82
2023-02-08T16:35:48.083Z,8.82
2023-02-08T16:38:14.447Z,8.80
2023-02-08T16:40:41.390Z,8.77
2023-02-08T16:43:07.985Z,8.78
2023-02-08T16:45:34.358Z,8.77
2023-02-08T16:48:13.448Z,8.75
2023-02-08T16:50:45.128Z,8.77
2023-02-08T16:53:11.685Z,8.75
2023-02-08T16:55:38.072Z,8.75
2023-02-08T16:58:04.528Z,8.75
2023-02-08T17:00:31.295Z,8.72
2023-02-08T17:02:57.668Z,8.73
2023-02-08T17:05:24.084Z,8.73
2023-02-08T17:07:50.466Z,8.72
2023-02-08T17:10:17.175Z,8.71
2023-02-08T17:12:43.482Z,8.71
2023-02-08T17:15:10.051Z,8.69
2023-02-08T17:17:36.428Z,8.68
2023-02-08T17:20:02.769Z,8.69
2023-02-08T17:22:29.268Z,8.68
2023-02-08T17:24:55.608Z,8.67
2023-02-08T17:27:22.034Z,8.68
2023-02-08T17:29:49.382Z,8.67
2023-02-08T17:32:16.278Z,8.66
2023-02-08T17:34:42.592Z,8.66
2023-02-08T17:37:09.477Z,8.64
2023-02-08T17:39:35.766Z,8.64
2023-02-08T17:42:02.122Z,8.62
2023-02-08T17:44:28.607Z,8.62
2023-02-08T17:46:54.944Z,8.62
2023-02-08T17:49:21.269Z,8.61
2023-02-08T17:51:47.685Z,8.59
2023-02-08T17:54:14.183Z,8.58
2023-02-08T17:56:41.305Z,8.59
2023-02-08T17:59:07.789Z,8.59
2023-02-08T18:01:34.333Z,8.58
2023-02-08T18:04:00.789Z,8.58
2023-02-08T18:06:27.399Z,8.57
2023-02-08T18:08:54.382Z,8.55
2023-02-08T18:11:20.936Z,8.56
2023-02-08T18:13:47.273Z,8.53
2023-02-08T18:16:13.784Z,8.55
2023-02-08T18:18:40.378Z,8.53
2023-02-08T18:21:07.911Z,8.52
2023-02-08T18:23:34.278Z,8.51
2023-02-08T18:26:00.924Z,8.50
2023-02-08T18:28:28.007Z,8.50
2023-02-08T18:30:54.420Z,8.50
2023-02-08T18:33:21.399Z,8.48
2023-02-08T18:35:47.760Z,8.50
2023-02-08T18:38:14.138Z,8.48
2023-02-08T18:40:40.607Z,8.47
2023-02-08T18:43:07.040Z,8.46
2023-02-08T18:45:33.850Z,8.46
2023-02-08T18:48:00.936Z,8.45
2023-02-08T18:50:27.379Z,8.45
2023-02-08T18:52:53.829Z,8.45
2023-02-08T18:55:20.172Z,8.45
2023-02-08T18:57:46.581Z,8.44
2023-02-08T19:00:12.930Z,8.46
2023-02-08T19:02:39.820Z,8.43
2023-02-08T19:05:06.281Z,8.44
2023-02-08T19:07:33.010Z,8.43
2023-02-08T19:09:59.377Z,8.43
2023-02-08T19:12:25.748Z,8.42
2023-02-08T19:14:52.130Z,8.42
2023-02-08T19:17:18.542Z,8.41
2023-02-08T19:19:45.114Z,8.41
2023-02-08T19:22:11.580Z,8.41
2023-02-08T19:24:37.968Z,8.39
2023-02-08T19:27:04.359Z,8.39
2023-02-08T19:29:30.754Z,8.37
2023-02-08T19:31:58.326Z,8.39
2023-02-08T19:34:25.512Z,8.38
2023-02-08T19:36:52.196Z,8.37
2023-02-08T19:39:18.701Z,8.35
2023-02-08T19:41:45.167Z,8.37
2023-02-08T19:44:11.567Z,8.35
2023-02-08T19:46:38.353Z,8.33
2023-02-08T19:49:05.159Z,8.36
2023-02-08T19:51:31.624Z,8.36
2023-02-08T19:53:58.040Z,8.34
2023-02-08T19:56:24.498Z,8.34
2023-02-08T19:58:51.157Z,8.32
2023-02-08T20:01:17.816Z,8.34
2023-02-08T20:03:44.337Z,8.33
2023-02-08T20:06:10.915Z,8.32
2023-02-08T20:08:37.552Z,8.30
2023-02-08T20:11:04.095Z,8.30
2023-02-08T20:13:30.430Z,8.29
2023-02-08T20:15:56.831Z,8.28
2023-02-08T20:18:23.570Z,8.29
2023-02-08T20:20:49.931Z,8.27
2023-02-08T20:23:22.533Z,8.27
2023-02-08T20:25:49.736Z,8.25
2023-02-08T20:28:16.506Z,8.25
2023-02-08T20:30:43.212Z,8.25
2023-02-08T20:33:09.624Z,8.24
2023-02-08T20:35:36.061Z,8.23
2023-02-08T20:38:02.707Z,8.23
2023-02-08T20:40:29.113Z,8.23
2023-02-08T20:42:56.140Z,8.24
2023-02-08T20:45:22.616Z,8.22
2023-02-08T20:47:49.268Z,8.20
2023-02-08T20:50:19.221Z,8.20
2023-02-08T20:52:46.150Z,8.20
2023-02-08T20:55:13.065Z,8.22
2023-02-08T20:57:39.692Z,8.21
2023-02-08T21:00:06.367Z,8.19
2023-02-08T21:02:33.164Z,8.19
2023-02-08T21:04:59.522Z,8.19
2023-02-08T21:07:25.923Z,8.18
2023-02-08T21:09:52.496Z,8.19
2023-02-08T21:12:19.426Z,8.18
2023-02-08T21:14:46.250Z,8.16
2023-02-08T21:17:12.880Z,8.14
2023-02-08T21:19:39.828Z,8.15
2023-02-08T21:22:06.199Z,8.14
2023-02-08T21:24:32.611Z,8.14
2023-02-08T21:26:59.286Z,8.13
2023-02-08T21:29:25.702Z,8.13
2023-02-08T21:31:52.306Z,8.11
2023-02-08T21:34:19.583Z,8.12
2023-02-08T21:36:46.000Z,8.11
2023-02-08T21:39:12.417Z,8.11
2023-02-08T21:41:39.158Z,8.10
2023-02-08T21:44:05.571Z,8.10
2023-02-08T21:46:32.251Z,8.10
2023-02-08T21:48:58.756Z,8.09
2023-02-08T21:51:25.087Z,8.07
2023-02-08T21:53:51.782Z,8.07
2023-02-08T21:56:18.167Z,8.07
2023-02-08T21:58:44.607Z,8.08
2023-02-08T22:01:11.344Z,8.07
2023-02-08T22:03:38.511Z,8.07
2023-02-08T22:06:05.071Z,8.06
2023-02-08T22:08:31.574Z,8.06
2023-02-08T22:10:58.789Z,8.06
2023-02-08T22:13:25.344Z,8.05
2023-02-08T22:15:51.758Z,8.04
2023-02-08T22:18:18.168Z,8.05
2023-02-08T22:20:44.921Z,8.05
2023-02-08T22:23:11.686Z,8.04
2023-02-08T22:25:38.071Z,8.06
2023-02-08T22:28:04.720Z,8.03
2023-02-08T22:30:31.179Z,8.03
2023-02-08T22:32:58.048Z,8.05
2023-02-08T22:35:24.355Z,8.03
2023-02-08T22:37:51.240Z,8.03
2023-02-08T22:40:17.606Z,8.02
2023-02-08T22:42:44.149Z,8.02
2023-02-08T22:45:10.513Z,8.03
2023-02-08T22:47:37.165Z,8.03
2023-02-08T22:50:03.773Z,8.02
2023-02-08T22:52:30.183Z,8.01
2023-02-08T22:55:07.194Z,8.01
2023-02-08T22:57:33.717Z,8.01
2023-02-08T23:00:00.329Z,8.01
2023-02-08T23:02:27.470Z,7.99
2023-02-08T23:04:54.419Z,8.00
2023-02-08T23:07:21.020Z,7.99
2023-02-08T23:09:47.455Z,8.01
2023-02-08T23:12:13.846Z,7.99
2023-02-08T23:14:40.487Z,7.99
2023-02-08T23:17:07.287Z,7.99
2023-02-08T23:19:34.359Z,7.99
2023-02-08T23:22:00.816Z,7.97
2023-02-08T23:24:27.852Z,7.98
2023-02-08T23:26:54.685Z,7.96
2023-02-08T23:29:21.106Z,7.97
2023-02-08T23:31:47.514Z,7.98
2023-02-08T23:34:14.366Z,7.97
2023-02-08T23:36:40.942Z,7.97
2023-02-08T23:39:07.425Z,7.97
2023-02-08T23:41:33.854Z,7.97
2023-02-08T23:44:00.793Z,7.95
2023-02-08T23:46:27.667Z,7.95
2023-02-08T23:48:54.155Z,7.95
2023-02-08T23:51:20.568Z,7.96
2023-02-08T23:53:47.036Z,7.95
2023-02-08T23:56:13.342Z,7.95
2023-02-08T23:58:39.851Z,7.94
